sensor_id;sensor_type;location;lat;lon;timestamp;temperature;humidity
37844;DHT22;63793;57.632;18.292;2023-06-01T00:00:51;11.10;99.90
37844;DHT22;63793;57.632;18.292;2023-06-01T00:03:22;11.10;99.90
37844;DHT22;63793;57.632;18.292;2023-06-01T00:05:50;11.10;99.90
37844;DHT22;63793;57.632;18.292;2023-06-01T00:08:17;11.00;99.90
37844;DHT22;63793;57.632;18.292;2023-06-01T00:10:44;11.00;99.90
37844;DHT22;63793;57.632;18.292;2023-06-01T00:13:11;11.00;99.90
37844;DHT22;63793;57.632;18.292;2023-06-01T00:15:38;11.00;99.90
37844;DHT22;63793;57.632;18.292;2023-06-01T00:18:05;10.90;99.90
37844;DHT22;63793;57.632;18.292;2023-06-01T00:20:32;10.90;99.90
37844;DHT22;63793;57.632;18.292;2023-06-01T00:23:00;10.90;99.90
37844;DHT22;63793;57.632;18.292;2023-06-01T00:25:27;10.90;99.90
37844;DHT22;63793;57.632;18.292;2023-06-01T00:27:54;10.90;99.90
37844;DHT22;63793;57.632;18.292;2023-06-01T00:30:21;10.80;99.90
37844;DHT22;63793;57.632;18.292;2023-06-01T00:32:47;10.80;99.90
37844;DHT22;63793;57.632;18.292;2023-06-01T00:35:14;10.80;99.90
37844;DHT22;63793;57.632;18.292;2023-06-01T00:37:41;10.70;99.90
37844;DHT22;63793;57.632;18.292;2023-06-01T00:40:09;10.70;99.90
37844;DHT22;63793;57.632;18.292;2023-06-01T00:42:36;10.70;99.90
37844;DHT22;63793;57.632;18.292;2023-06-01T00:45:04;10.60;99.90
37844;DHT22;63793;57.632;18.292;2023-06-01T00:47:38;10.60;99.90
37844;DHT22;63793;57.632;18.292;2023-06-01T00:50:06;10.50;99.90
37844;DHT22;63793;57.632;18.292;2023-06-01T00:52:33;10.50;99.90
37844;DHT22;63793;57.632;18.292;2023-06-01T00:55:00;10.40;99.90
37844;DHT22;63793;57.632;18.292;2023-06-01T00:57:28;10.40;99.90
37844;DHT22;63793;57.632;18.292;2023-06-01T00:59:56;10.40;99.90
37844;DHT22;63793;57.632;18.292;2023-06-01T01:02:23;10.40;99.90
37844;DHT22;63793;57.632;18.292;2023-06-01T01:04:50;10.40;99.90
37844;DHT22;63793;57.632;18.292;2023-06-01T01:07:25;10.40;99.90
37844;DHT22;63793;57.632;18.292;2023-06-01T01:10:02;10.40;99.90
37844;DHT22;63793;57.632;18.292;2023-06-01T01:12:47;10.40;99.90
37844;DHT22;63793;57.632;18.292;2023-06-01T01:15:32;10.50;99.90
37844;DHT22;63793;57.632;18.292;2023-06-01T01:18:04;10.40;99.90
37844;DHT22;63793;57.632;18.292;2023-06-01T01:20:38;10.40;99.90
37844;DHT22;63793;57.632;18.292;2023-06-01T01:30:57;10.20;99.90
37844;DHT22;63793;57.632;18.292;2023-06-01T01:33:27;10.20;99.90
37844;DHT22;63793;57.632;18.292;2023-06-01T01:35:55;10.10;99.90
37844;DHT22;63793;57.632;18.292;2023-06-01T01:38:22;10.10;99.90
37844;DHT22;63793;57.632;18.292;2023-06-01T01:40:49;10.10;99.90
37844;DHT22;63793;57.632;18.292;2023-06-01T01:43:20;10.00;99.90
37844;DHT22;63793;57.632;18.292;2023-06-01T01:45:53;10.00;99.90
37844;DHT22;63793;57.632;18.292;2023-06-01T01:48:31;10.00;99.90
37844;DHT22;63793;57.632;18.292;2023-06-01T01:51:05;10.00;99.90
37844;DHT22;63793;57.632;18.292;2023-06-01T01:53:35;9.90;99.90
37844;DHT22;63793;57.632;18.292;2023-06-01T01:56:04;9.90;99.90
37844;DHT22;63793;57.632;18.292;2023-06-01T01:58:33;9.90;99.90
37844;DHT22;63793;57.632;18.292;2023-06-01T02:01:01;9.80;99.90
37844;DHT22;63793;57.632;18.292;2023-06-01T02:03:30;9.80;99.90
37844;DHT22;63793;57.632;18.292;2023-06-01T02:05:57;9.80;99.90
37844;DHT22;63793;57.632;18.292;2023-06-01T02:08:24;9.80;99.90
37844;DHT22;63793;57.632;18.292;2023-06-01T02:10:51;9.80;99.90
37844;DHT22;63793;57.632;18.292;2023-06-01T02:13:18;9.80;99.90
37844;DHT22;63793;57.632;18.292;2023-06-01T02:15:44;9.80;99.90
37844;DHT22;63793;57.632;18.292;2023-06-01T02:18:11;9.80;99.90
37844;DHT22;63793;57.632;18.292;2023-06-01T02:20:38;9.80;99.90
37844;DHT22;63793;57.632;18.292;2023-06-01T02:23:05;9.80;99.90
37844;DHT22;63793;57.632;18.292;2023-06-01T02:25:32;9.90;99.90
37844;DHT22;63793;57.632;18.292;2023-06-01T02:27:59;9.80;99.90
37844;DHT22;63793;57.632;18.292;2023-06-01T02:30:26;9.80;99.90
37844;DHT22;63793;57.632;18.292;2023-06-01T02:32:54;9.80;99.90
37844;DHT22;63793;57.632;18.292;2023-06-01T02:35:22;9.80;99.90
37844;DHT22;63793;57.632;18.292;2023-06-01T02:37:49;9.80;99.90
37844;DHT22;63793;57.632;18.292;2023-06-01T02:40:16;9.90;99.90
37844;DHT22;63793;57.632;18.292;2023-06-01T02:42:43;9.80;99.90
37844;DHT22;63793;57.632;18.292;2023-06-01T02:45:10;9.90;99.90
37844;DHT22;63793;57.632;18.292;2023-06-01T02:47:37;9.90;99.90
37844;DHT22;63793;57.632;18.292;2023-06-01T02:50:05;9.90;99.90
37844;DHT22;63793;57.632;18.292;2023-06-01T02:52:36;9.90;99.90
37844;DHT22;63793;57.632;18.292;2023-06-01T02:55:04;10.00;99.90
37844;DHT22;63793;57.632;18.292;2023-06-01T02:57:47;10.00;99.90
37844;DHT22;63793;57.632;18.292;2023-06-01T03:00:14;10.00;99.90
37844;DHT22;63793;57.632;18.292;2023-06-01T03:02:48;10.10;99.90
37844;DHT22;63793;57.632;18.292;2023-06-01T03:05:15;10.10;99.90
37844;DHT22;63793;57.632;18.292;2023-06-01T03:07:48;10.20;99.90
37844;DHT22;63793;57.632;18.292;2023-06-01T03:10:25;10.20;99.90
37844;DHT22;63793;57.632;18.292;2023-06-01T03:13:05;10.30;99.90
37844;DHT22;63793;57.632;18.292;2023-06-01T03:15:33;10.40;99.90
37844;DHT22;63793;57.632;18.292;2023-06-01T03:18:00;10.40;99.90
37844;DHT22;63793;57.632;18.292;2023-06-01T03:20:29;10.40;99.90
37844;DHT22;63793;57.632;18.292;2023-06-01T03:22:56;10.40;99.90
37844;DHT22;63793;57.632;18.292;2023-06-01T03:25:23;10.50;99.90
37844;DHT22;63793;57.632;18.292;2023-06-01T03:27:51;10.50;99.90
37844;DHT22;63793;57.632;18.292;2023-06-01T03:30:18;10.60;99.90
37844;DHT22;63793;57.632;18.292;2023-06-01T03:32:45;10.60;99.90
37844;DHT22;63793;57.632;18.292;2023-06-01T03:35:13;10.70;99.90
37844;DHT22;63793;57.632;18.292;2023-06-01T03:37:42;10.70;99.90
37844;DHT22;63793;57.632;18.292;2023-06-01T03:40:10;10.70;99.90
37844;DHT22;63793;57.632;18.292;2023-06-01T03:42:45;10.70;99.90
37844;DHT22;63793;57.632;18.292;2023-06-01T03:45:14;10.80;99.90
37844;DHT22;63793;57.632;18.292;2023-06-01T03:47:43;10.90;99.90
37844;DHT22;63793;57.632;18.292;2023-06-01T03:50:10;11.00;99.90
37844;DHT22;63793;57.632;18.292;2023-06-01T03:52:38;11.10;99.90
37844;DHT22;63793;57.632;18.292;2023-06-01T03:55:06;11.10;99.90
37844;DHT22;63793;57.632;18.292;2023-06-01T03:57:56;11.10;99.90
37844;DHT22;63793;57.632;18.292;2023-06-01T04:00:24;11.20;99.90
37844;DHT22;63793;57.632;18.292;2023-06-01T04:02:58;11.30;99.90
37844;DHT22;63793;57.632;18.292;2023-06-01T04:05:26;11.40;99.90
37844;DHT22;63793;57.632;18.292;2023-06-01T04:07:55;11.50;99.90
37844;DHT22;63793;57.632;18.292;2023-06-01T04:10:22;11.60;99.90
37844;DHT22;63793;57.632;18.292;2023-06-01T04:12:50;11.70;99.90
37844;DHT22;63793;57.632;18.292;2023-06-01T04:15:20;11.80;99.90
37844;DHT22;63793;57.632;18.292;2023-06-01T04:17:47;11.80;99.90
37844;DHT22;63793;57.632;18.292;2023-06-01T04:20:15;11.80;99.90
37844;DHT22;63793;57.632;18.292;2023-06-01T04:22:44;11.90;99.90
37844;DHT22;63793;57.632;18.292;2023-06-01T04:25:14;12.00;99.90
37844;DHT22;63793;57.632;18.292;2023-06-01T04:27:50;12.00;99.90
37844;DHT22;63793;57.632;18.292;2023-06-01T04:30:23;12.10;99.90
37844;DHT22;63793;57.632;18.292;2023-06-01T04:32:51;12.20;99.90
37844;DHT22;63793;57.632;18.292;2023-06-01T04:35:20;12.30;99.90
37844;DHT22;63793;57.632;18.292;2023-06-01T04:37:47;12.30;99.90
37844;DHT22;63793;57.632;18.292;2023-06-01T04:40:15;12.40;99.90
37844;DHT22;63793;57.632;18.292;2023-06-01T04:42:44;12.40;99.90
37844;DHT22;63793;57.632;18.292;2023-06-01T04:45:17;12.50;99.90
37844;DHT22;63793;57.632;18.292;2023-06-01T04:47:45;12.60;99.90
37844;DHT22;63793;57.632;18.292;2023-06-01T04:50:20;12.70;99.90
37844;DHT22;63793;57.632;18.292;2023-06-01T04:52:47;12.70;99.90
37844;DHT22;63793;57.632;18.292;2023-06-01T04:55:16;12.70;99.90
37844;DHT22;63793;57.632;18.292;2023-06-01T04:57:43;12.90;99.90
37844;DHT22;63793;57.632;18.292;2023-06-01T05:00:14;12.90;99.90
37844;DHT22;63793;57.632;18.292;2023-06-01T05:02:46;13.00;99.90
37844;DHT22;63793;57.632;18.292;2023-06-01T05:05:15;13.00;99.90
37844;DHT22;63793;57.632;18.292;2023-06-01T05:07:43;13.20;99.90
37844;DHT22;63793;57.632;18.292;2023-06-01T05:10:11;13.20;99.90
37844;DHT22;63793;57.632;18.292;2023-06-01T05:12:42;13.20;99.90
37844;DHT22;63793;57.632;18.292;2023-06-01T05:15:10;13.10;99.90
37844;DHT22;63793;57.632;18.292;2023-06-01T05:17:39;13.10;99.90
37844;DHT22;63793;57.632;18.292;2023-06-01T05:20:09;13.20;99.90
37844;DHT22;63793;57.632;18.292;2023-06-01T05:22:40;13.20;99.90
37844;DHT22;63793;57.632;18.292;2023-06-01T05:25:07;13.20;99.90
37844;DHT22;63793;57.632;18.292;2023-06-01T05:27:35;13.30;99.90
37844;DHT22;63793;57.632;18.292;2023-06-01T05:30:02;13.30;99.90
37844;DHT22;63793;57.632;18.292;2023-06-01T05:32:30;13.20;99.90
37844;DHT22;63793;57.632;18.292;2023-06-01T05:35:04;13.20;99.90
37844;DHT22;63793;57.632;18.292;2023-06-01T05:37:33;13.20;99.90
37844;DHT22;63793;57.632;18.292;2023-06-01T05:40:00;13.30;99.90
37844;DHT22;63793;57.632;18.292;2023-06-01T05:42:27;13.30;99.90
37844;DHT22;63793;57.632;18.292;2023-06-01T05:44:54;13.30;99.90
37844;DHT22;63793;57.632;18.292;2023-06-01T05:47:21;13.30;99.90
37844;DHT22;63793;57.632;18.292;2023-06-01T05:49:48;13.40;99.90
37844;DHT22;63793;57.632;18.292;2023-06-01T05:52:15;13.50;99.90
37844;DHT22;63793;57.632;18.292;2023-06-01T05:54:42;13.50;99.90
37844;DHT22;63793;57.632;18.292;2023-06-01T05:57:09;13.50;99.90
37844;DHT22;63793;57.632;18.292;2023-06-01T05:59:36;13.60;99.90
37844;DHT22;63793;57.632;18.292;2023-06-01T06:02:04;13.60;99.90
37844;DHT22;63793;57.632;18.292;2023-06-01T06:04:31;13.70;99.90
37844;DHT22;63793;57.632;18.292;2023-06-01T06:06:58;13.70;99.90
37844;DHT22;63793;57.632;18.292;2023-06-01T06:09:25;13.80;99.90
37844;DHT22;63793;57.632;18.292;2023-06-01T06:11:52;13.80;99.90
37844;DHT22;63793;57.632;18.292;2023-06-01T06:14:19;13.70;99.90
37844;DHT22;63793;57.632;18.292;2023-06-01T06:16:46;13.70;99.90
37844;DHT22;63793;57.632;18.292;2023-06-01T06:19:13;13.80;99.90
37844;DHT22;63793;57.632;18.292;2023-06-01T06:21:42;13.80;99.90
37844;DHT22;63793;57.632;18.292;2023-06-01T06:24:09;13.90;99.90
37844;DHT22;63793;57.632;18.292;2023-06-01T06:26:36;13.90;99.90
37844;DHT22;63793;57.632;18.292;2023-06-01T06:29:03;13.90;99.90
37844;DHT22;63793;57.632;18.292;2023-06-01T06:31:30;13.90;99.90
37844;DHT22;63793;57.632;18.292;2023-06-01T06:33:59;13.90;99.90
37844;DHT22;63793;57.632;18.292;2023-06-01T06:36:25;14.00;99.90
37844;DHT22;63793;57.632;18.292;2023-06-01T06:38:52;13.90;99.90
37844;DHT22;63793;57.632;18.292;2023-06-01T06:41:19;14.00;99.90
37844;DHT22;63793;57.632;18.292;2023-06-01T06:43:47;14.00;99.90
37844;DHT22;63793;57.632;18.292;2023-06-01T06:46:14;14.10;99.90
37844;DHT22;63793;57.632;18.292;2023-06-01T06:48:41;14.10;99.90
37844;DHT22;63793;57.632;18.292;2023-06-01T06:51:08;14.10;99.90
37844;DHT22;63793;57.632;18.292;2023-06-01T06:53:35;14.10;99.90
37844;DHT22;63793;57.632;18.292;2023-06-01T06:56:02;14.20;99.90
37844;DHT22;63793;57.632;18.292;2023-06-01T06:58:29;14.20;99.90
37844;DHT22;63793;57.632;18.292;2023-06-01T07:00:56;14.30;99.90
37844;DHT22;63793;57.632;18.292;2023-06-01T07:03:23;14.40;99.90
37844;DHT22;63793;57.632;18.292;2023-06-01T07:05:50;14.60;99.90
37844;DHT22;63793;57.632;18.292;2023-06-01T07:08:17;14.60;99.90
37844;DHT22;63793;57.632;18.292;2023-06-01T07:10:44;14.50;99.90
37844;DHT22;63793;57.632;18.292;2023-06-01T07:13:11;14.40;99.90
37844;DHT22;63793;57.632;18.292;2023-06-01T07:15:38;14.20;99.90
37844;DHT22;63793;57.632;18.292;2023-06-01T07:18:05;14.00;99.90
37844;DHT22;63793;57.632;18.292;2023-06-01T07:20:33;13.90;99.90
37844;DHT22;63793;57.632;18.292;2023-06-01T07:23:00;13.80;99.90
37844;DHT22;63793;57.632;18.292;2023-06-01T07:25:27;13.70;99.90
37844;DHT22;63793;57.632;18.292;2023-06-01T07:27:53;13.70;99.90
37844;DHT22;63793;57.632;18.292;2023-06-01T07:30:23;13.80;99.90
37844;DHT22;63793;57.632;18.292;2023-06-01T07:32:50;13.70;99.90
37844;DHT22;63793;57.632;18.292;2023-06-01T07:35:17;13.70;99.90
37844;DHT22;63793;57.632;18.292;2023-06-01T07:37:44;13.70;99.90
37844;DHT22;63793;57.632;18.292;2023-06-01T07:40:12;13.70;99.90
37844;DHT22;63793;57.632;18.292;2023-06-01T07:42:39;13.70;99.90
37844;DHT22;63793;57.632;18.292;2023-06-01T07:45:07;13.70;99.90
37844;DHT22;63793;57.632;18.292;2023-06-01T07:47:35;13.80;99.90
37844;DHT22;63793;57.632;18.292;2023-06-01T07:50:03;13.90;99.90
37844;DHT22;63793;57.632;18.292;2023-06-01T07:52:30;14.00;99.90
37844;DHT22;63793;57.632;18.292;2023-06-01T07:54:57;14.10;99.90
37844;DHT22;63793;57.632;18.292;2023-06-01T07:57:24;14.20;99.90
37844;DHT22;63793;57.632;18.292;2023-06-01T07:59:51;14.10;99.90
37844;DHT22;63793;57.632;18.292;2023-06-01T08:02:18;14.00;99.90
37844;DHT22;63793;57.632;18.292;2023-06-01T08:04:47;13.90;99.90
37844;DHT22;63793;57.632;18.292;2023-06-01T08:07:14;13.90;99.90
37844;DHT22;63793;57.632;18.292;2023-06-01T08:09:43;13.70;99.90
37844;DHT22;63793;57.632;18.292;2023-06-01T08:12:10;13.50;99.90
37844;DHT22;63793;57.632;18.292;2023-06-01T08:14:38;13.50;99.90
37844;DHT22;63793;57.632;18.292;2023-06-01T08:17:05;13.40;99.90
37844;DHT22;63793;57.632;18.292;2023-06-01T08:19:34;13.40;99.90
37844;DHT22;63793;57.632;18.292;2023-06-01T08:22:02;13.50;99.90
37844;DHT22;63793;57.632;18.292;2023-06-01T08:24:34;13.50;99.90
37844;DHT22;63793;57.632;18.292;2023-06-01T08:27:15;13.70;99.90
37844;DHT22;63793;57.632;18.292;2023-06-01T08:29:42;13.80;99.90
37844;DHT22;63793;57.632;18.292;2023-06-01T08:32:09;13.90;99.80
37844;DHT22;63793;57.632;18.292;2023-06-01T08:34:36;13.90;99.10
37844;DHT22;63793;57.632;18.292;2023-06-01T08:37:03;13.80;98.70
37844;DHT22;63793;57.632;18.292;2023-06-01T08:39:30;13.70;99.10
37844;DHT22;63793;57.632;18.292;2023-06-01T08:42:15;13.70;99.00
37844;DHT22;63793;57.632;18.292;2023-06-01T08:44:47;13.60;99.30
37844;DHT22;63793;57.632;18.292;2023-06-01T08:47:17;13.30;99.30
37844;DHT22;63793;57.632;18.292;2023-06-01T08:49:45;13.10;98.10
37844;DHT22;63793;57.632;18.292;2023-06-01T08:52:13;13.10;97.80
37844;DHT22;63793;57.632;18.292;2023-06-01T08:54:40;12.90;97.30
37844;DHT22;63793;57.632;18.292;2023-06-01T08:57:07;12.90;98.10
37844;DHT22;63793;57.632;18.292;2023-06-01T08:59:35;12.90;98.20
37844;DHT22;63793;57.632;18.292;2023-06-01T09:02:03;12.90;97.80
37844;DHT22;63793;57.632;18.292;2023-06-01T09:04:31;13.00;97.90
37844;DHT22;63793;57.632;18.292;2023-06-01T09:06:58;13.00;98.20
37844;DHT22;63793;57.632;18.292;2023-06-01T09:09:25;13.00;99.00
37844;DHT22;63793;57.632;18.292;2023-06-01T09:14:42;13.00;98.00
37844;DHT22;63793;57.632;18.292;2023-06-01T09:17:14;13.10;97.80
37844;DHT22;63793;57.632;18.292;2023-06-01T09:19:44;13.10;97.60
37844;DHT22;63793;57.632;18.292;2023-06-01T09:22:11;13.10;97.70
37844;DHT22;63793;57.632;18.292;2023-06-01T09:24:39;13.00;97.80
37844;DHT22;63793;57.632;18.292;2023-06-01T09:27:09;13.00;98.30
37844;DHT22;63793;57.632;18.292;2023-06-01T09:29:36;12.80;98.70
37844;DHT22;63793;57.632;18.292;2023-06-01T09:32:03;12.60;99.10
37844;DHT22;63793;57.632;18.292;2023-06-01T09:34:30;12.50;99.40
37844;DHT22;63793;57.632;18.292;2023-06-01T09:37:05;12.50;99.20
37844;DHT22;63793;57.632;18.292;2023-06-01T09:39:33;12.40;99.00
37844;DHT22;63793;57.632;18.292;2023-06-01T09:42:01;12.30;98.80
37844;DHT22;63793;57.632;18.292;2023-06-01T09:44:33;12.30;99.30
37844;DHT22;63793;57.632;18.292;2023-06-01T09:47:04;12.30;99.10
37844;DHT22;63793;57.632;18.292;2023-06-01T09:49:36;12.20;98.80
37844;DHT22;63793;57.632;18.292;2023-06-01T09:57:02;12.20;97.50
37844;DHT22;63793;57.632;18.292;2023-06-01T09:59:40;12.30;98.10
37844;DHT22;63793;57.632;18.292;2023-06-01T10:02:15;12.40;98.30
37844;DHT22;63793;57.632;18.292;2023-06-01T10:04:46;12.60;98.20
37844;DHT22;63793;57.632;18.292;2023-06-01T10:07:14;12.60;98.60
37844;DHT22;63793;57.632;18.292;2023-06-01T10:09:44;12.60;97.90
37844;DHT22;63793;57.632;18.292;2023-06-01T10:12:12;12.30;98.40
37844;DHT22;63793;57.632;18.292;2023-06-01T10:14:39;12.30;98.40
37844;DHT22;63793;57.632;18.292;2023-06-01T10:17:07;12.30;98.40
37844;DHT22;63793;57.632;18.292;2023-06-01T10:19:36;12.20;98.90
37844;DHT22;63793;57.632;18.292;2023-06-01T10:22:04;12.10;97.90
37844;DHT22;63793;57.632;18.292;2023-06-01T10:24:35;12.10;97.70
37844;DHT22;63793;57.632;18.292;2023-06-01T10:27:13;12.00;97.70
37844;DHT22;63793;57.632;18.292;2023-06-01T10:29:42;11.90;98.00
37844;DHT22;63793;57.632;18.292;2023-06-01T10:32:41;11.90;98.10
37844;DHT22;63793;57.632;18.292;2023-06-01T10:40:43;11.50;99.00
37844;DHT22;63793;57.632;18.292;2023-06-01T10:46:07;11.40;99.90
37844;DHT22;63793;57.632;18.292;2023-06-01T10:48:55;11.30;99.90
37844;DHT22;63793;57.632;18.292;2023-06-01T10:51:23;11.20;99.90
37844;DHT22;63793;57.632;18.292;2023-06-01T10:53:55;11.20;99.90
37844;DHT22;63793;57.632;18.292;2023-06-01T10:56:41;11.10;99.90
37844;DHT22;63793;57.632;18.292;2023-06-01T11:01:45;11.20;99.90
37844;DHT22;63793;57.632;18.292;2023-06-01T11:04:13;11.20;99.90
37844;DHT22;63793;57.632;18.292;2023-06-01T11:06:42;11.10;99.90
37844;DHT22;63793;57.632;18.292;2023-06-01T11:09:11;11.00;99.90
37844;DHT22;63793;57.632;18.292;2023-06-01T11:14:15;10.90;99.90
37844;DHT22;63793;57.632;18.292;2023-06-01T11:16:43;11.00;99.90
37844;DHT22;63793;57.632;18.292;2023-06-01T11:19:18;11.00;99.90
37844;DHT22;63793;57.632;18.292;2023-06-01T11:21:45;11.10;99.90
37844;DHT22;63793;57.632;18.292;2023-06-01T11:24:14;11.10;99.90
37844;DHT22;63793;57.632;18.292;2023-06-01T11:26:50;11.10;99.90
37844;DHT22;63793;57.632;18.292;2023-06-01T11:29:24;11.20;99.90
37844;DHT22;63793;57.632;18.292;2023-06-01T11:31:56;11.30;99.90
37844;DHT22;63793;57.632;18.292;2023-06-01T11:34:41;11.40;99.90
37844;DHT22;63793;57.632;18.292;2023-06-01T11:37:15;11.50;99.90
37844;DHT22;63793;57.632;18.292;2023-06-01T11:39:42;11.50;99.90
37844;DHT22;63793;57.632;18.292;2023-06-01T11:44:40;11.60;99.70
37844;DHT22;63793;57.632;18.292;2023-06-01T11:47:09;11.70;99.90
37844;DHT22;63793;57.632;18.292;2023-06-01T11:49:49;11.80;99.90
37844;DHT22;63793;57.632;18.292;2023-06-01T11:52:18;12.00;99.90
37844;DHT22;63793;57.632;18.292;2023-06-01T11:54:45;12.10;99.50
37844;DHT22;63793;57.632;18.292;2023-06-01T11:57:12;12.20;98.80
37844;DHT22;63793;57.632;18.292;2023-06-01T11:59:41;12.30;99.00
37844;DHT22;63793;57.632;18.292;2023-06-01T12:07:26;12.90;98.00
37844;DHT22;63793;57.632;18.292;2023-06-01T12:09:54;13.00;97.50
37844;DHT22;63793;57.632;18.292;2023-06-01T12:12:23;13.10;96.70
37844;DHT22;63793;57.632;18.292;2023-06-01T12:14:51;13.00;97.70
37844;DHT22;63793;57.632;18.292;2023-06-01T12:17:19;13.00;96.10
37844;DHT22;63793;57.632;18.292;2023-06-01T12:19:47;12.90;96.10
37844;DHT22;63793;57.632;18.292;2023-06-01T12:22:15;12.80;96.40
37844;DHT22;63793;57.632;18.292;2023-06-01T12:24:44;12.80;96.20
37844;DHT22;63793;57.632;18.292;2023-06-01T12:27:18;12.70;96.00
37844;DHT22;63793;57.632;18.292;2023-06-01T12:29:47;12.80;96.70
37844;DHT22;63793;57.632;18.292;2023-06-01T12:32:17;12.80;96.60
37844;DHT22;63793;57.632;18.292;2023-06-01T12:35:02;12.90;95.70
37844;DHT22;63793;57.632;18.292;2023-06-01T12:37:29;13.10;95.90
37844;DHT22;63793;57.632;18.292;2023-06-01T12:39:57;13.10;94.90
37844;DHT22;63793;57.632;18.292;2023-06-01T12:45:03;13.00;94.70
37844;DHT22;63793;57.632;18.292;2023-06-01T12:47:40;12.90;94.40
37844;DHT22;63793;57.632;18.292;2023-06-01T12:50:11;12.90;94.90
37844;DHT22;63793;57.632;18.292;2023-06-01T12:52:40;12.90;95.10
37844;DHT22;63793;57.632;18.292;2023-06-01T12:55:11;13.00;94.30
37844;DHT22;63793;57.632;18.292;2023-06-01T12:57:38;13.10;94.70
37844;DHT22;63793;57.632;18.292;2023-06-01T13:00:06;13.10;93.70
37844;DHT22;63793;57.632;18.292;2023-06-01T13:02:33;13.30;94.40
37844;DHT22;63793;57.632;18.292;2023-06-01T13:05:02;13.20;93.70
37844;DHT22;63793;57.632;18.292;2023-06-01T13:07:31;13.30;94.00
37844;DHT22;63793;57.632;18.292;2023-06-01T13:09:58;13.20;92.80
37844;DHT22;63793;57.632;18.292;2023-06-01T13:12:26;13.20;92.70
37844;DHT22;63793;57.632;18.292;2023-06-01T13:14:55;13.20;92.50
37844;DHT22;63793;57.632;18.292;2023-06-01T13:17:22;13.10;92.30
37844;DHT22;63793;57.632;18.292;2023-06-01T13:19:49;12.90;92.10
37844;DHT22;63793;57.632;18.292;2023-06-01T13:22:16;12.70;92.70
37844;DHT22;63793;57.632;18.292;2023-06-01T13:24:43;12.70;93.00
37844;DHT22;63793;57.632;18.292;2023-06-01T13:27:13;12.60;92.70
37844;DHT22;63793;57.632;18.292;2023-06-01T13:29:40;12.50;92.60
37844;DHT22;63793;57.632;18.292;2023-06-01T13:32:08;12.50;93.00
37844;DHT22;63793;57.632;18.292;2023-06-01T13:34:35;12.50;93.00
37844;DHT22;63793;57.632;18.292;2023-06-01T13:37:02;12.40;92.60
37844;DHT22;63793;57.632;18.292;2023-06-01T13:39:29;12.40;92.60
37844;DHT22;63793;57.632;18.292;2023-06-01T13:41:56;12.40;92.90
37844;DHT22;63793;57.632;18.292;2023-06-01T13:44:23;12.30;93.00
37844;DHT22;63793;57.632;18.292;2023-06-01T13:46:50;12.30;92.70
37844;DHT22;63793;57.632;18.292;2023-06-01T13:49:17;12.30;92.80
37844;DHT22;63793;57.632;18.292;2023-06-01T13:51:44;12.30;92.80
37844;DHT22;63793;57.632;18.292;2023-06-01T13:54:11;12.40;93.40
37844;DHT22;63793;57.632;18.292;2023-06-01T13:56:39;12.40;92.80
37844;DHT22;63793;57.632;18.292;2023-06-01T13:59:06;12.50;92.40
37844;DHT22;63793;57.632;18.292;2023-06-01T14:01:33;12.60;93.00
37844;DHT22;63793;57.632;18.292;2023-06-01T14:04:02;12.60;92.40
37844;DHT22;63793;57.632;18.292;2023-06-01T14:06:30;12.70;92.80
37844;DHT22;63793;57.632;18.292;2023-06-01T14:08:57;12.80;93.10
37844;DHT22;63793;57.632;18.292;2023-06-01T14:11:24;12.80;93.00
37844;DHT22;63793;57.632;18.292;2023-06-01T14:13:51;12.80;92.60
37844;DHT22;63793;57.632;18.292;2023-06-01T14:16:18;12.80;92.40
37844;DHT22;63793;57.632;18.292;2023-06-01T14:18:45;12.80;91.90
37844;DHT22;63793;57.632;18.292;2023-06-01T14:21:12;12.80;91.80
37844;DHT22;63793;57.632;18.292;2023-06-01T14:23:39;12.80;91.60
37844;DHT22;63793;57.632;18.292;2023-06-01T14:26:10;12.70;90.90
37844;DHT22;63793;57.632;18.292;2023-06-01T14:28:37;12.60;91.60
37844;DHT22;63793;57.632;18.292;2023-06-01T14:31:04;12.60;91.90
37844;DHT22;63793;57.632;18.292;2023-06-01T14:33:31;12.60;92.10
37844;DHT22;63793;57.632;18.292;2023-06-01T14:35:58;12.70;92.40
37844;DHT22;63793;57.632;18.292;2023-06-01T14:38:25;12.70;92.80
37844;DHT22;63793;57.632;18.292;2023-06-01T14:40:52;12.80;92.40
37844;DHT22;63793;57.632;18.292;2023-06-01T14:43:19;12.80;91.70
37844;DHT22;63793;57.632;18.292;2023-06-01T14:45:46;12.80;91.40
37844;DHT22;63793;57.632;18.292;2023-06-01T14:48:13;12.90;91.50
37844;DHT22;63793;57.632;18.292;2023-06-01T14:50:40;12.80;91.60
37844;DHT22;63793;57.632;18.292;2023-06-01T14:53:07;12.80;92.00
37844;DHT22;63793;57.632;18.292;2023-06-01T14:55:34;12.90;91.60
37844;DHT22;63793;57.632;18.292;2023-06-01T14:58:01;13.00;91.40
37844;DHT22;63793;57.632;18.292;2023-06-01T15:00:29;13.00;91.70
37844;DHT22;63793;57.632;18.292;2023-06-01T15:02:57;13.00;92.30
37844;DHT22;63793;57.632;18.292;2023-06-01T15:05:24;13.10;91.90
37844;DHT22;63793;57.632;18.292;2023-06-01T15:07:51;13.00;91.80
37844;DHT22;63793;57.632;18.292;2023-06-01T15:10:18;13.10;90.90
37844;DHT22;63793;57.632;18.292;2023-06-01T15:12:45;13.00;90.80
37844;DHT22;63793;57.632;18.292;2023-06-01T15:15:12;12.90;90.50
37844;DHT22;63793;57.632;18.292;2023-06-01T15:17:39;12.90;90.70
37844;DHT22;63793;57.632;18.292;2023-06-01T15:20:07;12.90;90.30
37844;DHT22;63793;57.632;18.292;2023-06-01T15:22:34;12.90;90.80
37844;DHT22;63793;57.632;18.292;2023-06-01T15:25:04;12.90;91.00
37844;DHT22;63793;57.632;18.292;2023-06-01T15:27:31;12.90;90.90
37844;DHT22;63793;57.632;18.292;2023-06-01T15:29:57;12.90;91.10
37844;DHT22;63793;57.632;18.292;2023-06-01T15:32:24;12.90;91.20
37844;DHT22;63793;57.632;18.292;2023-06-01T15:34:51;12.90;91.70
37844;DHT22;63793;57.632;18.292;2023-06-01T15:37:18;12.90;91.20
37844;DHT22;63793;57.632;18.292;2023-06-01T15:39:46;13.00;91.50
37844;DHT22;63793;57.632;18.292;2023-06-01T15:42:13;13.10;90.70
37844;DHT22;63793;57.632;18.292;2023-06-01T15:44:42;13.10;90.50
37844;DHT22;63793;57.632;18.292;2023-06-01T15:47:10;13.10;90.40
37844;DHT22;63793;57.632;18.292;2023-06-01T15:49:40;13.30;90.50
37844;DHT22;63793;57.632;18.292;2023-06-01T15:52:08;13.30;89.80
37844;DHT22;63793;57.632;18.292;2023-06-01T15:54:35;13.50;89.80
37844;DHT22;63793;57.632;18.292;2023-06-01T15:57:03;13.60;89.10
37844;DHT22;63793;57.632;18.292;2023-06-01T15:59:34;13.70;87.10
37844;DHT22;63793;57.632;18.292;2023-06-01T16:02:01;13.70;87.50
37844;DHT22;63793;57.632;18.292;2023-06-01T16:04:29;13.80;87.10
37844;DHT22;63793;57.632;18.292;2023-06-01T16:06:57;14.00;87.10